createdAt,value
2019-03-30T00:02:18.849Z,5.40
2019-03-30T00:04:48.778Z,5.40
2019-03-30T00:07:18.668Z,5.40
2019-03-30T00:09:48.480Z,5.40
2019-03-30T00:12:18.319Z,5.40
2019-03-30T00:14:50.521Z,5.40
2019-03-30T00:17:20.347Z,5.30
2019-03-30T00:19:50.575Z,5.30
2019-03-30T00:22:20.579Z,5.30
2019-03-30T00:24:50.363Z,5.30
2019-03-30T00:27:20.355Z,5.30
2019-03-30T00:29:50.562Z,5.30
2019-03-30T00:32:20.750Z,5.20
2019-03-30T00:34:50.585Z,5.20
2019-03-30T00:37:20.590Z,5.20
2019-03-30T00:39:50.495Z,5.10
2019-03-30T00:42:20.422Z,5.00
2019-03-30T00:44:50.233Z,4.90
2019-03-30T00:47:20.288Z,4.90
2019-03-30T00:49:50.336Z,4.80
2019-03-30T00:52:20.484Z,4.90
2019-03-30T00:54:50.341Z,4.90
2019-03-30T00:57:20.322Z,4.90
2019-03-30T00:59:50.324Z,4.90
2019-03-30T01:02:20.185Z,4.90
2019-03-30T01:04:50.214Z,4.80
2019-03-30T01:07:20.461Z,4.80
2019-03-30T01:09:50.495Z,4.70
2019-03-30T01:12:20.760Z,4.70
2019-03-30T01:14:50.585Z,4.70
2019-03-30T01:17:20.604Z,4.60
2019-03-30T01:20:02.195Z,4.60
2019-03-30T01:22:24.292Z,4.50
2019-03-30T01:24:54.327Z,4.50
2019-03-30T01:27:24.252Z,4.50
2019-03-30T01:29:54.225Z,4.40
2019-03-30T01:32:24.060Z,4.50
2019-03-30T01:34:54.002Z,4.40
2019-03-30T01:37:26.728Z,4.50
2019-03-30T01:39:56.480Z,4.50
2019-03-30T01:42:26.481Z,4.50
2019-03-30T01:44:56.526Z,4.50
2019-03-30T01:47:26.636Z,4.50
2019-03-30T01:49:56.492Z,4.40
2019-03-30T01:52:26.822Z,4.40
2019-03-30T01:54:56.893Z,4.30
2019-03-30T01:57:26.907Z,4.30
2019-03-30T01:59:57.894Z,4.20
2019-03-30T02:02:27.991Z,4.20
2019-03-30T02:04:57.833Z,4.20
2019-03-30T02:07:28.115Z,4.10
2019-03-30T02:09:57.990Z,4.10
2019-03-30T02:12:27.920Z,4.00
2019-03-30T02:14:57.824Z,4.00
2019-03-30T02:17:27.677Z,4.00
2019-03-30T02:19:57.520Z,4.00
2019-03-30T02:22:28.522Z,4.00
2019-03-30T02:24:58.518Z,4.00
2019-03-30T02:27:28.592Z,4.00
2019-03-30T02:29:59.738Z,3.90
2019-03-30T02:32:31.980Z,3.90
2019-03-30T02:35:01.782Z,3.90
2019-03-30T02:37:31.753Z,3.90
2019-03-30T02:40:01.657Z,3.80
2019-03-30T02:42:32.752Z,3.80
2019-03-30T02:45:02.670Z,3.80
2019-03-30T02:47:32.600Z,3.80
2019-03-30T02:50:02.694Z,3.70
2019-03-30T02:52:33.175Z,3.80
2019-03-30T02:55:03.062Z,3.80
2019-03-30T02:57:33.539Z,3.80
2019-03-30T03:00:04.254Z,3.70
2019-03-30T03:02:38.972Z,3.70
2019-03-30T03:05:09.933Z,3.60
2019-03-30T03:07:43.856Z,3.60
2019-03-30T03:10:14.962Z,3.60
2019-03-30T03:12:46.778Z,3.60
2019-03-30T03:15:16.737Z,3.60
2019-03-30T03:17:47.125Z,3.50
2019-03-30T03:20:17.396Z,3.50
2019-03-30T03:22:47.238Z,3.60
2019-03-30T03:25:18.308Z,3.50
2019-03-30T03:27:48.156Z,3.50
2019-03-30T03:30:19.440Z,3.50
2019-03-30T03:32:49.386Z,3.50
2019-03-30T03:35:19.214Z,3.50
2019-03-30T03:37:49.133Z,3.50
2019-03-30T03:40:19.384Z,3.50
2019-03-30T03:42:49.339Z,3.40
2019-03-30T03:45:19.132Z,3.40
2019-03-30T03:47:49.115Z,3.30
2019-03-30T03:50:48.687Z,3.30
2019-03-30T03:53:18.514Z,3.30
2019-03-30T03:55:50.158Z,3.20
2019-03-30T03:58:21.580Z,3.20
2019-03-30T04:00:53.847Z,3.30
2019-03-30T04:03:26.636Z,3.30
2019-03-30T04:05:59.115Z,3.20
2019-03-30T04:08:31.711Z,3.20
2019-03-30T04:11:02.645Z,3.20
2019-03-30T04:13:32.641Z,3.10
2019-03-30T04:16:02.658Z,3.10
2019-03-30T04:18:32.573Z,3.10
2019-03-30T04:21:02.494Z,3.00
2019-03-30T04:23:32.614Z,3.10
2019-03-30T04:26:02.578Z,3.10
2019-03-30T04:28:32.605Z,3.10
2019-03-30T04:31:02.420Z,3.10
2019-03-30T04:33:32.335Z,3.00
2019-03-30T04:36:02.280Z,3.00
2019-03-30T04:38:32.114Z,3.00
2019-03-30T04:41:02.087Z,3.00
2019-03-30T04:43:33.799Z,3.00
2019-03-30T04:46:03.791Z,3.00
2019-03-30T04:48:34.111Z,3.10
2019-03-30T04:51:03.946Z,3.10
2019-03-30T04:53:34.058Z,3.10
2019-03-30T04:56:04.498Z,3.10
2019-03-30T04:58:35.822Z,3.20
2019-03-30T05:01:05.689Z,3.20
2019-03-30T05:03:35.561Z,3.20
2019-03-30T05:06:05.386Z,3.30
2019-03-30T05:08:35.449Z,3.40
2019-03-30T05:11:05.389Z,3.50
2019-03-30T05:13:35.294Z,3.50
2019-03-30T05:16:05.147Z,3.50
2019-03-30T05:18:35.044Z,3.60
2019-03-30T05:21:06.727Z,3.60
2019-03-30T05:23:40.167Z,3.60
2019-03-30T05:26:10.171Z,3.70
2019-03-30T05:28:42.814Z,3.70
2019-03-30T05:31:12.842Z,3.70
2019-03-30T05:33:45.102Z,3.80
2019-03-30T05:36:15.141Z,3.90
2019-03-30T05:38:47.487Z,4.00
2019-03-30T05:41:17.470Z,4.10
2019-03-30T05:43:48.618Z,4.20
2019-03-30T05:46:18.569Z,4.30
2019-03-30T05:48:48.453Z,4.40
2019-03-30T05:51:18.402Z,4.50
2019-03-30T05:53:48.229Z,4.60
2019-03-30T05:56:18.186Z,4.70
2019-03-30T05:58:50.149Z,4.90
2019-03-30T06:01:21.084Z,5.00
2019-03-30T06:03:50.899Z,5.10
2019-03-30T06:06:20.905Z,5.20
2019-03-30T06:08:50.782Z,5.30
2019-03-30T06:11:20.659Z,5.40
2019-03-30T06:13:50.584Z,5.60
2019-03-30T06:16:20.621Z,5.70
2019-03-30T06:18:50.630Z,5.80
2019-03-30T06:21:21.481Z,5.90
2019-03-30T06:23:51.327Z,6.00
2019-03-30T06:26:21.282Z,6.10
2019-03-30T06:28:51.199Z,6.30
2019-03-30T06:31:21.194Z,6.40
2019-03-30T06:33:51.202Z,6.50
2019-03-30T06:36:21.006Z,6.70
2019-03-30T06:38:52.007Z,6.80
2019-03-30T06:41:21.922Z,7.00
2019-03-30T06:43:51.920Z,7.20
2019-03-30T06:46:21.750Z,7.40
2019-03-30T06:48:51.553Z,7.60
2019-03-30T06:51:21.542Z,7.90
2019-03-30T06:53:51.481Z,8.20
2019-03-30T06:56:21.730Z,8.90
2019-03-30T06:58:51.757Z,10.80
2019-03-30T07:01:21.975Z,13.00
2019-03-30T07:03:52.008Z,14.50
2019-03-30T07:06:22.208Z,15.80
2019-03-30T07:08:55.130Z,16.70
2019-03-30T07:11:27.578Z,17.40
2019-03-30T07:14:00.689Z,18.10
2019-03-30T07:16:34.423Z,18.40
2019-03-30T07:19:05.597Z,18.50
2019-03-30T07:21:35.464Z,18.70
2019-03-30T07:24:05.361Z,18.50
2019-03-30T07:26:36.109Z,19.40
2019-03-30T07:29:06.073Z,19.60
2019-03-30T07:31:36.008Z,19.40
2019-03-30T07:34:06.007Z,19.50
2019-03-30T07:36:35.805Z,19.90
2019-03-30T07:39:09.200Z,20.00
2019-03-30T07:41:39.663Z,20.30
2019-03-30T07:44:11.800Z,20.00
2019-03-30T07:46:41.811Z,20.70
2019-03-30T07:49:11.705Z,20.10
2019-03-30T07:51:43.727Z,20.10
2019-03-30T07:54:15.101Z,19.90
2019-03-30T07:56:48.158Z,20.60
2019-03-30T07:59:18.083Z,21.20
2019-03-30T08:01:49.182Z,20.90
2019-03-30T08:04:19.080Z,21.60
2019-03-30T08:06:49.044Z,22.20
2019-03-30T08:09:19.277Z,22.40
2019-03-30T08:11:49.348Z,22.50
2019-03-30T08:14:19.380Z,22.90
2019-03-30T08:16:49.250Z,22.20
2019-03-30T08:19:21.793Z,22.30
2019-03-30T17:35:31.037Z,15.60
2019-03-30T17:38:03.437Z,15.20
2019-03-30T17:40:33.504Z,15.20
2019-03-30T17:43:03.382Z,15.10
2019-03-30T17:45:33.555Z,15.10
2019-03-30T17:48:03.559Z,15.10
2019-03-30T17:50:33.953Z,15.00
2019-03-30T17:53:04.304Z,14.90
2019-03-30T17:55:34.456Z,14.80
2019-03-30T17:58:12.842Z,14.90
2019-03-30T18:00:37.735Z,14.80
2019-03-30T18:03:08.919Z,14.90
2019-03-30T18:05:44.745Z,14.80
2019-03-30T18:08:15.210Z,14.80
2019-03-30T18:10:47.714Z,14.80
2019-03-30T18:13:17.676Z,14.70
2019-03-30T18:15:47.794Z,14.60
2019-03-30T18:18:17.742Z,14.50
2019-03-30T18:20:49.980Z,14.50
2019-03-30T18:23:19.810Z,14.40
2019-03-30T18:25:49.873Z,14.40
2019-03-30T18:28:26.935Z,14.30
2019-03-30T18:30:52.625Z,14.30
2019-03-30T18:33:22.830Z,14.20
2019-03-30T18:35:53.289Z,14.20
2019-03-30T18:38:24.743Z,14.20
2019-03-30T18:40:54.866Z,14.20
2019-03-30T18:43:26.137Z,14.20
2019-03-30T18:45:56.245Z,14.10
2019-03-30T18:48:27.079Z,14.10
2019-03-30T18:50:57.527Z,14.10
2019-03-30T18:53:27.529Z,14.20
2019-03-30T18:55:57.480Z,14.10
2019-03-30T18:58:40.750Z,14.00
2019-03-30T19:01:01.453Z,14.00
2019-03-30T19:03:32.713Z,13.90
2019-03-30T19:06:03.222Z,13.90
2019-03-30T19:08:34.705Z,13.70
2019-03-30T19:11:05.714Z,13.70
2019-03-30T19:13:39.990Z,13.50
2019-03-30T19:16:09.991Z,13.50
2019-03-30T19:18:39.997Z,13.40
2019-03-30T19:21:10.784Z,13.30
2019-03-30T19:23:41.580Z,13.30
2019-03-30T19:26:11.717Z,13.30
2019-03-30T19:28:55.308Z,13.30
2019-03-30T19:31:13.661Z,13.20
2019-03-30T19:33:43.647Z,13.20
2019-03-30T19:36:13.631Z,13.10
2019-03-30T19:38:43.521Z,13.00
2019-03-30T19:41:13.589Z,13.00
2019-03-30T19:43:43.505Z,12.90
2019-03-30T19:46:13.473Z,12.80
2019-03-30T19:48:43.649Z,12.70
2019-03-30T19:51:13.692Z,12.50
2019-03-30T19:53:43.643Z,12.40
2019-03-30T19:56:13.498Z,12.30
2019-03-30T19:58:43.419Z,12.10
2019-03-30T20:01:15.214Z,12.00
2019-03-30T20:03:45.091Z,11.90
2019-03-30T20:06:14.963Z,11.80
2019-03-30T20:08:45.026Z,11.80
2019-03-30T20:11:14.864Z,11.70
2019-03-30T20:13:44.836Z,11.60
2019-03-30T20:16:14.758Z,11.50
2019-03-30T20:18:44.747Z,11.40
2019-03-30T20:21:14.573Z,11.40
2019-03-30T20:23:44.672Z,11.30
2019-03-30T20:26:21.962Z,11.20
2019-03-30T20:28:51.813Z,11.10
2019-03-30T20:31:21.827Z,11.10
2019-03-30T20:33:51.815Z,11.10
2019-03-30T20:36:21.899Z,11.00
2019-03-30T20:38:51.745Z,10.90
2019-03-30T20:41:21.714Z,10.90
2019-03-30T20:43:53.090Z,10.80
2019-03-30T20:46:23.194Z,10.70
2019-03-30T20:48:53.081Z,10.70
2019-03-30T20:51:23.055Z,10.50
2019-03-30T20:53:52.897Z,10.50
2019-03-30T20:56:22.812Z,10.50
2019-03-30T20:58:52.667Z,10.50
2019-03-30T21:01:22.740Z,10.40
2019-03-30T21:03:52.703Z,10.40
2019-03-30T21:06:22.786Z,10.30
2019-03-30T21:08:52.779Z,10.30
2019-03-30T21:11:22.634Z,10.20
2019-03-30T21:13:52.583Z,10.20
2019-03-30T21:16:22.476Z,10.10
2019-03-30T21:18:52.532Z,10.10
2019-03-30T21:21:24.757Z,10.00
2019-03-30T21:23:54.717Z,10.10
2019-03-30T21:26:28.650Z,10.10
2019-03-30T21:28:58.219Z,10.10
2019-03-30T21:31:28.610Z,9.90
2019-03-30T21:33:58.901Z,9.80
2019-03-30T21:36:28.761Z,9.80
2019-03-30T21:38:58.818Z,9.70
2019-03-30T21:41:29.102Z,9.60
2019-03-30T21:44:00.442Z,9.60
2019-03-30T21:46:30.253Z,9.60
2019-03-30T21:49:00.299Z,9.60
2019-03-30T21:51:30.175Z,9.50
2019-03-30T21:54:00.167Z,9.40
2019-03-30T21:56:30.061Z,9.30
2019-03-30T21:58:59.954Z,9.30
2019-03-30T22:01:30.035Z,9.20
2019-03-30T22:03:59.964Z,9.20
2019-03-30T22:06:29.917Z,9.20
2019-03-30T22:08:59.846Z,9.10
2019-03-30T22:11:29.849Z,9.00
2019-03-30T22:13:59.705Z,9.00
2019-03-30T22:16:29.870Z,9.00
2019-03-30T22:18:59.683Z,8.90
2019-03-30T22:21:29.711Z,9.00
2019-03-30T22:24:00.128Z,8.90
2019-03-30T22:26:30.306Z,8.90
2019-03-30T22:29:00.305Z,8.80
2019-03-30T22:31:30.283Z,8.80
2019-03-30T22:34:01.678Z,8.80
2019-03-30T22:36:31.561Z,8.70
2019-03-30T22:39:01.477Z,8.70
2019-03-30T22:41:31.720Z,8.70
2019-03-30T22:44:01.642Z,8.70
2019-03-30T22:46:34.635Z,8.60
2019-03-30T22:49:04.499Z,8.60
2019-03-30T22:51:34.591Z,8.60
2019-03-30T22:54:04.431Z,8.60
2019-03-30T22:56:34.590Z,8.60
2019-03-30T22:59:04.445Z,8.60
2019-03-30T23:01:34.480Z,8.50
2019-03-30T23:04:04.654Z,8.50
2019-03-30T23:06:35.062Z,8.40
2019-03-30T23:09:06.469Z,8.40
2019-03-30T23:11:36.686Z,8.40
2019-03-30T23:14:06.550Z,8.40
2019-03-30T23:16:36.545Z,8.30
2019-03-30T23:19:06.381Z,8.30
2019-03-30T23:21:36.516Z,8.30
2019-03-30T23:24:06.414Z,8.30
2019-03-30T23:26:38.598Z,8.20
2019-03-30T23:29:09.700Z,8.30
2019-03-30T23:31:39.737Z,8.20
2019-03-30T23:34:10.024Z,8.20
2019-03-30T23:36:39.925Z,8.20
2019-03-30T23:39:09.842Z,8.10
2019-03-30T23:41:39.793Z,8.10
2019-03-30T23:44:09.711Z,8.10
2019-03-30T23:46:40.410Z,8.10
2019-03-30T23:49:10.176Z,8.10
2019-03-30T23:51:40.145Z,8.10
2019-03-30T23:54:17.910Z,8.20
2019-03-30T23:56:53.063Z,8.20
2019-03-30T23:59:22.871Z,8.10
